Time;durP1;ratioP1;P1;durP2;ratioP2;P2;SDS_P1;SDS_P2;PMS_P1;PMS_P2;Temp;Humidity;BMP_temperature;BMP_pressure;BME280_temperature;BME280_humidity;BME280_pressure;Samples;Min_cycle;Max_cycle;Signal;HPM_P1;HPM_P2
2021/11/14 00:00:42;;;;;;;1999.90;999.90;;;;;;;-0.45;96.57;96101.84;5030478;28;20198;-68
2021/11/14 00:03:10;;;;;;;1999.90;999.90;;;;;;;-0.48;96.28;96098.94;5030824;28;20186;-68
2021/11/14 00:05:40;;;;;;;1999.90;999.90;;;;;;;-0.72;97.21;96104.84;5030311;28;20308;-68
2021/11/14 00:08:07;;;;;;;1999.90;999.90;;;;;;;-0.71;97.14;96104.63;5029341;28;20206;-68
2021/11/14 00:10:37;;;;;;;1999.90;999.90;;;;;;;-0.74;96.52;96112.69;5030347;28;20208;-68
2021/11/14 00:13:04;;;;;;;1999.90;999.90;;;;;;;-0.79;96.14;96116.84;5030334;28;20209;-68
2021/11/14 00:15:31;;;;;;;1999.90;999.90;;;;;;;-0.97;95.09;96108.13;5030291;28;20202;-68
2021/11/14 00:17:59;;;;;;;1999.90;999.90;;;;;;;-1.02;95.64;96115.63;5030243;28;20197;-68
2021/11/14 00:20:27;;;;;;;1999.90;999.90;;;;;;;-1.19;95.86;96106.88;5030439;28;20255;-67
2021/11/14 00:22:55;;;;;;;1999.90;999.90;;;;;;;-1.18;96.10;96112.75;5030510;28;20577;-67
2021/11/14 00:25:22;;;;;;;1999.90;999.90;;;;;;;-1.14;95.80;96112.13;5030130;28;20632;-67
2021/11/14 00:27:52;;;;;;;1999.90;999.90;;;;;;;-1.20;96.40;96107.88;5030367;28;20216;-68
2021/11/14 00:30:21;;;;;;;1999.90;999.90;;;;;;;-0.89;96.26;96107.88;5029962;28;20201;-68
2021/11/14 00:32:50;;;;;;;1999.90;999.90;;;;;;;-0.94;97.48;96107.72;5030247;28;20221;-67
2021/11/14 00:35:18;;;;;;;1999.90;999.90;;;;;;;-1.01;98.25;96113.84;5030175;28;20209;-68
2021/11/14 00:37:45;;;;;;;1999.90;999.90;;;;;;;-1.01;97.98;96113.84;5029808;28;20194;-67
2021/11/14 00:40:15;;;;;;;1999.90;999.90;;;;;;;-1.18;97.58;96107.66;5030017;28;20202;-67
2021/11/14 00:42:42;;;;;;;1999.90;999.90;;;;;;;-1.26;97.25;96111.25;5030123;28;20198;-68
2021/11/14 00:45:11;;;;;;;1999.90;999.90;;;;;;;-1.30;97.19;96112.63;5029914;28;20194;-68
2021/11/14 00:47:39;;;;;;;1999.90;999.90;;;;;;;-1.34;97.10;96114.00;5031980;28;20263;-67
2021/11/14 00:50:11;;;;;;;1999.90;999.90;;;;;;;-1.31;97.40;96113.63;5034044;28;20243;-67
2021/11/14 00:52:39;;;;;;;1999.90;999.90;;;;;;;-1.36;96.91;96111.69;5034216;28;20219;-68
2021/11/14 00:55:08;;;;;;;1999.90;999.90;;;;;;;-1.48;97.52;96115.84;5033514;28;20193;-67
2021/11/14 00:57:36;;;;;;;1999.90;999.90;;;;;;;-1.42;97.13;96116.78;5033906;28;20255;-68
2021/11/14 01:00:06;;;;;;;1999.90;999.90;;;;;;;-1.36;97.73;96113.44;5034078;28;20592;-68
2021/11/14 01:02:34;;;;;;;1999.90;999.90;;;;;;;-1.30;97.13;96110.09;5033853;28;20700;-67
2021/11/14 01:05:01;;;;;;;1999.90;999.90;;;;;;;-1.42;97.48;96116.78;5031066;28;20233;-67
2021/11/14 01:07:29;;;;;;;1999.90;999.90;;;;;;;-1.38;97.11;96110.31;5013634;28;20194;-67
2021/11/14 01:09:56;;;;;;;1999.90;999.90;;;;;;;-1.43;97.66;96115.22;5014736;28;20198;-68
2021/11/14 01:12:23;;;;;;;1999.90;999.90;;;;;;;-1.37;97.55;96099.13;5014105;28;20641;-67
2021/11/14 01:14:50;;;;;;;1999.90;999.90;;;;;;;-1.35;97.70;96107.38;5014446;28;20199;-67
2021/11/14 01:17:19;;;;;;;1999.90;999.90;;;;;;;-1.37;98.94;96110.09;5013912;28;21002;-68
2021/11/14 01:19:47;;;;;;;1999.90;999.90;;;;;;;-1.37;98.81;96105.00;5013778;28;20685;-67
2021/11/14 01:22:16;;;;;;;1999.90;999.90;;;;;;;-1.41;99.10;96105.63;5014133;28;20648;-68
2021/11/14 01:24:43;;;;;;;1999.90;999.90;;;;;;;-1.32;99.20;96104.41;5013694;28;20745;-67
2021/11/14 01:27:14;;;;;;;1999.90;999.90;;;;;;;-1.29;99.11;96101.44;5013893;28;20202;-68
2021/11/14 01:29:41;;;;;;;1999.90;999.90;;;;;;;-1.31;98.53;96096.56;5013470;28;20197;-67
2021/11/14 01:32:09;;;;;;;1999.90;999.90;;;;;;;-1.14;96.73;96091.75;5013427;28;20293;-67
2021/11/14 01:34:36;;;;;;;1999.90;999.90;;;;;;;-1.24;97.11;96099.06;5014082;28;20701;-67
2021/11/14 01:37:05;;;;;;;1999.90;999.90;;;;;;;-1.37;98.14;96099.13;5013385;28;20220;-68
2021/11/14 01:39:33;;;;;;;1999.90;999.90;;;;;;;-1.51;98.61;96098.41;5013668;28;20206;-68
2021/11/14 01:42:00;;;;;;;1999.90;999.90;;;;;;;-1.38;99.08;96089.91;5013304;28;20248;-67
2021/11/14 01:44:28;;;;;;;1999.90;999.90;;;;;;;-1.41;99.20;96098.75;5013357;28;20199;-68
2021/11/14 01:46:55;;;;;;;1999.90;999.90;;;;;;;-1.50;98.90;96092.34;5013520;28;20221;-68
2021/11/14 01:49:22;;;;;;;1999.90;999.90;;;;;;;-1.39;98.17;96093.44;5013308;28;20245;-67
2021/11/14 01:51:50;;;;;;;1999.90;999.90;;;;;;;-1.51;98.47;96084.88;5013123;28;20284;-67
2021/11/14 01:54:19;;;;;;;1999.90;999.90;;;;;;;-1.52;97.81;96096.06;5013413;28;20194;-68
2021/11/14 01:56:47;;;;;;;1999.90;999.90;;;;;;;-1.47;98.55;96089.38;5013230;28;20288;-68
2021/11/14 01:59:15;;;;;;;1999.90;999.90;;;;;;;-1.45;98.00;96086.63;5012169;28;20209;-68
2021/11/14 02:01:42;;;;;;;1999.90;999.90;;;;;;;-1.48;98.56;96089.56;5013245;28;20249;-68
2021/11/14 02:04:09;;;;;;;1999.90;999.90;;;;;;;-1.41;99.36;96088.56;5012964;28;20202;-67
2021/11/14 02:06:39;;;;;;;1999.90;999.90;;;;;;;-1.45;99.00;96087.41;5027502;28;20292;-68
2021/11/14 02:09:07;;;;;;;1999.90;999.90;;;;;;;-1.46;99.95;96090.16;5032622;28;20198;-67
2021/11/14 02:11:36;;;;;;;1999.90;999.90;;;;;;;-1.37;99.94;96086.38;5032733;28;20205;-67
2021/11/14 02:14:04;;;;;;;1999.90;999.90;;;;;;;-1.24;99.78;96085.53;5032713;28;20274;-68
2021/11/14 02:16:33;;;;;;;1999.90;999.90;;;;;;;-1.25;99.80;96089.88;5032465;28;20248;-67
2021/11/14 02:19:00;;;;;;;1999.90;999.90;;;;;;;-1.19;99.53;96094.13;5032465;28;20194;-68
2021/11/14 02:21:29;;;;;;;1999.90;999.90;;;;;;;-1.04;98.88;96089.53;5032401;28;20251;-68
2021/11/14 02:23:56;;;;;;;1999.90;999.90;;;;;;;-1.08;97.79;96087.59;5032322;28;20202;-68
2021/11/14 02:26:24;;;;;;;1999.90;999.90;;;;;;;-1.16;98.52;96087.84;5032269;28;20248;-67
2021/11/14 02:28:51;;;;;;;1999.90;999.90;;;;;;;-1.14;98.15;96089.19;5032505;28;20550;-67
2021/11/14 02:31:19;;;;;;;1999.90;999.90;;;;;;;-1.02;98.87;96090.13;5032482;28;20260;-67
2021/11/14 02:33:46;;;;;;;1999.90;999.90;;;;;;;-1.04;98.73;96096.41;5031625;28;20216;-67
2021/11/14 02:36:13;;;;;;;1999.90;999.90;;;;;;;-0.96;98.57;96089.31;5032242;28;20198;-68
2021/11/14 02:38:42;;;;;;;1999.90;999.90;;;;;;;-1.13;98.69;96085.66;5031959;28;20243;-67
2021/11/14 02:41:10;;;;;;;1999.90;999.90;;;;;;;-1.11;99.44;96083.69;5031962;28;20240;-67
2021/11/14 02:43:43;;;;;;;1999.90;999.90;;;;;;;-1.04;99.24;96091.28;5032292;28;20194;-68
2021/11/14 02:46:11;;;;;;;1999.90;999.90;;;;;;;-1.01;98.94;96084.03;5032268;28;20236;-68
2021/11/14 02:48:39;;;;;;;1999.90;999.90;;;;;;;-1.06;98.45;96086.41;5031911;28;20201;-68
2021/11/14 02:51:08;;;;;;;1999.90;999.90;;;;;;;-1.09;98.74;96093.69;5032118;28;20643;-68
2021/11/14 02:53:36;;;;;;;1999.90;999.90;;;;;;;-1.12;98.84;96086.44;5032036;28;20702;-68
2021/11/14 02:56:05;;;;;;;1999.90;999.90;;;;;;;-1.08;99.43;96097.78;5031632;28;20210;-67
2021/11/14 02:58:33;;;;;;;1999.90;999.90;;;;;;;-1.16;99.54;96095.50;5031582;28;20205;-67
2021/11/14 03:01:04;;;;;;;1999.90;999.90;;;;;;;-1.04;99.35;96098.94;5031883;28;20716;-68
2021/11/14 03:03:32;;;;;;;1999.90;999.90;;;;;;;-1.03;99.60;96097.97;5031774;28;20214;-68
2021/11/14 03:06:00;;;;;;;1999.90;999.90;;;;;;;-0.95;98.92;96101.03;5031278;28;20245;-68
2021/11/14 03:08:27;;;;;;;1999.90;999.90;;;;;;;-0.97;98.99;96100.47;5031444;28;20206;-68
2021/11/14 03:10:54;;;;;;;1999.90;999.90;;;;;;;-0.95;98.88;96098.50;5031544;28;20198;-68
2021/11/14 03:13:24;;;;;;;1999.90;999.90;;;;;;;-0.91;99.36;96098.88;5031569;28;20229;-68
2021/11/14 03:15:55;;;;;;;1999.90;999.90;;;;;;;-0.87;99.06;96103.38;5031530;28;20247;-67
2021/11/14 03:18:23;;;;;;;1999.90;999.90;;;;;;;-0.84;99.53;96109.03;5031704;28;20628;-67
2021/11/14 03:20:53;;;;;;;1999.90;999.90;;;;;;;-0.81;99.23;96100.97;5031454;28;20194;-68
2021/11/14 03:23:22;;;;;;;1999.90;999.90;;;;;;;-0.70;99.99;96097.75;5031432;28;20224;-67
2021/11/14 03:25:50;;;;;;;1999.90;999.90;;;;;;;-0.53;99.78;96093.69;5031072;28;20198;-68
2021/11/14 03:28:18;;;;;;;1999.90;999.90;;;;;;;-0.47;99.98;96082.66;5031416;28;20198;-68
2021/11/14 03:30:49;;;;;;;1999.90;999.90;;;;;;;-0.36;99.71;96094.75;5031049;28;20201;-67
2021/11/14 03:33:16;;;;;;;1999.90;999.90;;;;;;;-0.30;99.48;96100.78;5030999;28;20209;-67
2021/11/14 03:35:48;;;;;;;1999.90;999.90;;;;;;;-0.23;99.53;96102.28;5031139;28;20208;-68
2021/11/14 03:38:17;;;;;;;1999.90;999.90;;;;;;;-0.16;99.75;96102.22;5030941;28;20182;-68
2021/11/14 03:40:45;;;;;;;1999.90;999.90;;;;;;;-0.04;99.92;96100.50;5031238;28;20202;-68
2021/11/14 03:43:12;;;;;;;1999.90;999.90;;;;;;;-0.05;100.00;96099.72;5031134;28;20200;-68
2021/11/14 03:45:39;;;;;;;1999.90;999.90;;;;;;;0.12;99.28;96104.28;5031009;28;20202;-68
2021/11/14 03:48:08;;;;;;;1999.90;999.90;;;;;;;0.03;98.95;96105.56;5030977;28;20202;-68
2021/11/14 03:50:37;;;;;;;1999.90;999.90;;;;;;;0.10;99.64;96106.28;5030986;28;20194;-68
2021/11/14 03:53:05;;;;;;;1999.90;999.90;;;;;;;0.02;100.00;96104.00;5030598;28;20222;-68
2021/11/14 03:55:32;;;;;;;1999.90;999.90;;;;;;;0.11;100.00;96102.72;5030878;28;20273;-68
2021/11/14 03:58:00;;;;;;;1999.90;999.90;;;;;;;0.15;100.00;96103.88;5030572;28;20196;-68
2021/11/14 04:00:31;;;;;;;1999.90;999.90;;;;;;;0.17;100.00;96102.66;5030528;28;20198;-68
2021/11/14 04:03:00;;;;;;;1999.90;999.90;;;;;;;0.23;100.00;96103.59;5030638;28;20191;-68
2021/11/14 04:05:30;;;;;;;1999.90;999.90;;;;;;;0.22;100.00;96102.03;5030351;28;20620;-68
2021/11/14 04:07:57;;;;;;;1999.90;999.90;;;;;;;0.33;100.00;96104.66;5030346;28;20214;-68
2021/11/14 04:10:24;;;;;;;1999.90;999.90;;;;;;;0.34;100.00;96101.13;5030664;28;20547;-68
2021/11/14 04:12:52;;;;;;;1999.90;999.90;;;;;;;0.40;100.00;96100.25;5030479;28;20257;-67
2021/11/14 04:15:19;;;;;;;1999.90;999.90;;;;;;;0.43;100.00;96102.38;5030081;28;20696;-68
2021/11/14 04:17:55;;;;;;;1999.90;999.90;;;;;;;0.48;100.00;96098.41;5030379;28;20236;-68
2021/11/14 04:20:23;;;;;;;1999.90;999.90;;;;;;;0.52;100.00;96100.31;5030234;28;20181;-68
2021/11/14 04:22:51;;;;;;;1999.90;999.90;;;;;;;0.70;100.00;96102.84;5029610;28;20203;-68
2021/11/14 04:25:19;;;;;;;1999.90;999.90;;;;;;;0.66;100.00;96106.03;5030454;28;20202;-68
2021/11/14 04:27:46;;;;;;;1999.90;999.90;;;;;;;0.70;100.00;96104.59;5030533;28;20206;-68
2021/11/14 04:30:14;;;;;;;1999.90;999.90;;;;;;;0.82;100.00;96105.44;5030247;28;20764;-68
2021/11/14 04:32:41;;;;;;;1999.90;999.90;;;;;;;0.82;100.00;96106.22;5030096;28;20228;-68
2021/11/14 04:35:09;;;;;;;1999.90;999.90;;;;;;;0.78;100.00;96106.88;5029987;28;20256;-68
2021/11/14 04:37:36;;;;;;;1999.90;999.90;;;;;;;0.90;100.00;96101.81;5030201;28;20200;-68
2021/11/14 04:40:07;;;;;;;1999.90;999.90;;;;;;;0.98;100.00;96104.06;5030101;28;20683;-68
2021/11/14 04:42:34;;;;;;;1999.90;999.90;;;;;;;1.07;100.00;96092.53;5030041;28;20182;-68
2021/11/14 04:45:03;;;;;;;1999.90;999.90;;;;;;;1.05;100.00;96097.06;5030158;28;20197;-69
2021/11/14 04:47:29;;;;;;;1999.90;999.90;;;;;;;1.12;100.00;96101.09;5029826;28;20258;-69
2021/11/14 04:49:57;;;;;;;1999.90;999.90;;;;;;;1.13;100.00;96096.78;5029906;28;20675;-68
2021/11/14 04:52:24;;;;;;;1999.90;999.90;;;;;;;1.04;100.00;96100.63;5029892;28;20200;-69
2021/11/14 04:54:51;;;;;;;1999.90;999.90;;;;;;;1.01;100.00;96104.41;5030152;28;20250;-69
2021/11/14 04:57:19;;;;;;;1999.90;999.90;;;;;;;1.11;100.00;96103.88;5030153;28;20231;-68
2021/11/14 04:59:46;;;;;;;1999.90;999.90;;;;;;;1.17;100.00;96103.78;5030142;28;20199;-68
2021/11/14 05:02:14;;;;;;;1999.90;999.90;;;;;;;1.14;100.00;96108.56;5029810;28;20733;-68
2021/11/14 05:04:41;;;;;;;1999.90;999.90;;;;;;;1.19;100.00;96116.38;5029902;28;20235;-68
2021/11/14 05:07:10;;;;;;;1999.90;999.90;;;;;;;1.19;100.00;96113.81;5030217;28;20203;-69
2021/11/14 05:09:37;;;;;;;1999.90;999.90;;;;;;;1.27;100.00;96114.28;5030094;28;20198;-69
2021/11/14 05:12:05;;;;;;;1999.90;999.90;;;;;;;1.38;100.00;96110.19;5030026;28;20235;-68
2021/11/14 05:14:34;;;;;;;1999.90;999.90;;;;;;;1.37;100.00;96118.84;5029545;28;20224;-68
2021/11/14 05:17:01;;;;;;;1999.90;999.90;;;;;;;1.40;100.00;96123.53;5029516;28;20258;-68
2021/11/14 05:19:28;;;;;;;1999.90;999.90;;;;;;;1.44;100.00;96129.78;5029934;28;20228;-69
2021/11/14 05:21:55;;;;;;;1999.90;999.90;;;;;;;1.63;100.00;96122.81;5029689;28;20224;-69
2021/11/14 05:24:22;;;;;;;1999.90;999.90;;;;;;;1.50;100.00;96128.88;5029567;28;20730;-69
2021/11/14 05:26:50;;;;;;;1999.90;999.90;;;;;;;1.58;100.00;96131.16;5029851;28;20205;-69
2021/11/14 05:29:17;;;;;;;1999.90;999.90;;;;;;;1.57;100.00;96133.91;5029781;28;20205;-69
2021/11/14 05:31:46;;;;;;;1999.90;999.90;;;;;;;1.66;100.00;96132.59;5029477;28;20629;-69
2021/11/14 05:34:13;;;;;;;1999.90;999.90;;;;;;;1.77;100.00;96134.41;5032317;28;20274;-69
2021/11/14 05:36:40;;;;;;;1999.90;999.90;;;;;;;1.79;100.00;96140.09;5033165;28;20689;-69
2021/11/14 05:39:07;;;;;;;1999.90;999.90;;;;;;;1.80;100.00;96148.53;5033235;28;20200;-69
2021/11/14 05:41:34;;;;;;;1999.90;999.90;;;;;;;1.67;100.00;96141.84;5033088;28;20364;-68
2021/11/14 05:44:01;;;;;;;1999.90;999.90;;;;;;;1.91;100.00;96148.53;5033063;28;20732;-69
2021/11/14 05:46:28;;;;;;;1999.90;999.90;;;;;;;1.91;100.00;96147.75;5033264;28;20199;-69
2021/11/14 05:48:56;;;;;;;1999.90;999.90;;;;;;;1.93;100.00;96148.34;5033029;28;20240;-68
2021/11/14 05:51:23;;;;;;;1999.90;999.90;;;;;;;1.97;100.00;96149.44;5033206;28;20201;-69
2021/11/14 05:53:50;;;;;;;1999.90;999.90;;;;;;;2.02;100.00;96152.13;5033033;28;20231;-69
2021/11/14 05:56:17;;;;;;;1999.90;999.90;;;;;;;2.10;100.00;96154.34;5033121;28;20202;-69
2021/11/14 05:58:48;;;;;;;1999.90;999.90;;;;;;;2.14;100.00;96155.47;5032937;28;20279;-68
2021/11/14 06:01:18;;;;;;;1999.90;999.90;;;;;;;2.17;100.00;96149.88;5033179;28;20197;-69
2021/11/14 06:03:55;;;;;;;1999.90;999.90;;;;;;;2.28;100.00;96153.44;5033190;28;20198;-68
2021/11/14 06:06:23;;;;;;;1999.90;999.90;;;;;;;2.27;100.00;96164.69;5032368;28;20673;-68
2021/11/14 06:08:50;;;;;;;1999.90;999.90;;;;;;;2.42;100.00;96168.38;5032592;28;20586;-68
2021/11/14 06:11:18;;;;;;;1999.90;999.90;;;;;;;2.35;100.00;96172.84;5032744;28;20206;-68
2021/11/14 06:13:47;;;;;;;1999.90;999.90;;;;;;;2.43;100.00;96175.06;5032447;28;20339;-68
2021/11/14 06:16:14;;;;;;;1999.90;999.90;;;;;;;2.41;100.00;96176.28;5032689;28;20207;-68
2021/11/14 06:18:41;;;;;;;1999.90;999.90;;;;;;;2.44;100.00;96175.84;5032720;28;20212;-68
2021/11/14 06:21:08;;;;;;;1999.90;999.90;;;;;;;2.50;100.00;96180.84;5032325;28;20217;-68
2021/11/14 06:23:37;;;;;;;1999.90;999.90;;;;;;;2.44;100.00;96170.72;5032622;28;20193;-69
2021/11/14 06:26:04;;;;;;;1999.90;999.90;;;;;;;2.67;100.00;96177.59;5032303;28;20202;-68
2021/11/14 06:28:31;;;;;;;1999.90;999.90;;;;;;;2.66;100.00;96181.94;5032521;28;20582;-68
2021/11/14 06:30:58;;;;;;;1999.90;999.90;;;;;;;2.75;100.00;96184.94;5032344;28;20194;-68
2021/11/14 06:33:25;;;;;;;1999.90;999.90;;;;;;;2.92;100.00;96184.00;5032386;28;20233;-69
2021/11/14 06:35:53;;;;;;;1999.90;999.90;;;;;;;2.96;100.00;96189.47;5032120;28;20647;-68
2021/11/14 06:38:20;;;;;;;1999.90;999.90;;;;;;;3.02;100.00;96186.78;5031597;28;20668;-68
2021/11/14 06:40:48;;;;;;;1999.90;999.90;;;;;;;3.02;100.00;96181.63;5032265;28;20582;-68
2021/11/14 06:43:16;;;;;;;1999.90;999.90;;;;;;;3.11;100.00;96189.75;5032011;28;20201;-68
2021/11/14 06:45:43;;;;;;;1999.90;999.90;;;;;;;3.11;100.00;96186.41;5031348;28;20201;-68
2021/11/14 06:48:10;;;;;;;1999.90;999.90;;;;;;;3.23;100.00;96185.34;5031791;28;20213;-68
2021/11/14 06:50:37;;;;;;;1999.90;999.90;;;;;;;3.30;100.00;96182.63;5031803;28;20236;-68
2021/11/14 06:53:05;;;;;;;1999.90;999.90;;;;;;;3.55;100.00;96174.59;5031982;28;20255;-68
2021/11/14 06:55:32;;;;;;;1999.90;999.90;;;;;;;3.62;100.00;96175.22;5031906;28;20301;-68
2021/11/14 06:58:01;;;;;;;1999.90;999.90;;;;;;;3.63;100.00;96181.94;5031789;28;20200;-68
2021/11/14 07:00:30;;;;;;;1999.90;999.90;;;;;;;3.83;100.00;96185.63;5031818;28;20204;-68
2021/11/14 07:02:57;;;;;;;1999.90;999.90;;;;;;;3.85;100.00;96182.78;5031856;28;20201;-68
2021/11/14 07:05:24;;;;;;;1999.90;999.90;;;;;;;3.88;100.00;96188.25;5031396;28;20229;-68
2021/11/14 07:07:51;;;;;;;1999.90;999.90;;;;;;;4.02;100.00;96185.38;5031459;28;20202;-69
2021/11/14 07:10:20;;;;;;;1999.90;999.90;;;;;;;3.92;100.00;96191.13;5031582;28;20685;-68
2021/11/14 07:12:48;;;;;;;1999.90;999.90;;;;;;;3.67;100.00;96185.59;5031368;28;20237;-68
2021/11/14 07:15:17;;;;;;;1999.90;999.90;;;;;;;3.81;100.00;96181.69;5031724;28;20217;-68
2021/11/14 07:17:45;;;;;;;1999.90;999.90;;;;;;;3.72;100.00;96185.66;5031742;28;20251;-68
2021/11/14 07:20:14;;;;;;;1999.90;999.90;;;;;;;3.80;100.00;96186.06;5031593;28;20205;-68
2021/11/14 07:22:42;;;;;;;1999.90;999.90;;;;;;;3.96;100.00;96179.38;5031256;28;20198;-68
2021/11/14 07:25:14;;;;;;;1999.90;999.90;;;;;;;3.97;100.00;96191.22;5031459;28;20194;-69
2021/11/14 07:27:42;;;;;;;1999.90;999.90;;;;;;;3.96;100.00;96189.66;5031444;28;20637;-68
2021/11/14 07:30:11;;;;;;;1999.90;999.90;;;;;;;4.06;100.00;96194.94;5031355;28;20260;-68
2021/11/14 07:32:40;;;;;;;1999.90;999.90;;;;;;;4.03;100.00;96192.06;5031451;28;20202;-68
2021/11/14 07:35:09;;;;;;;1999.90;999.90;;;;;;;3.89;100.00;96196.72;5031557;28;20694;-68
2021/11/14 07:37:36;;;;;;;1999.90;999.90;;;;;;;3.98;100.00;96192.00;5031430;28;20201;-68
2021/11/14 07:40:05;;;;;;;1999.90;999.90;;;;;;;4.16;100.00;96181.47;5031178;28;20213;-68
2021/11/14 07:42:33;;;;;;;1999.90;999.90;;;;;;;4.05;100.00;96188.25;5031159;28;20328;-68
2021/11/14 07:45:00;;;;;;;1999.90;999.90;;;;;;;4.06;100.00;96183.88;5031507;28;20193;-69
2021/11/14 07:47:27;;;;;;;1999.90;999.90;;;;;;;4.19;100.00;96183.53;5031090;28;20201;-68
2021/11/14 07:49:55;;;;;;;1999.90;999.90;;;;;;;4.30;100.00;96191.19;5030669;28;20263;-68
2021/11/14 07:52:22;;;;;;;1999.90;999.90;;;;;;;4.14;100.00;96186.03;5031000;28;20248;-68
2021/11/14 07:54:49;;;;;;;1999.90;999.90;;;;;;;4.02;100.00;96193.09;5030774;28;20226;-68
2021/11/14 07:57:17;;;;;;;1999.90;999.90;;;;;;;3.97;100.00;96188.66;5030012;28;20198;-68
2021/11/14 07:59:44;;;;;;;1999.90;999.90;;;;;;;4.21;100.00;96197.75;5030611;28;20201;-68
2021/11/14 08:02:11;;;;;;;1999.90;999.90;;;;;;;4.38;100.00;96197.75;5030484;28;20205;-68
2021/11/14 08:04:38;;;;;;;1999.90;999.90;;;;;;;4.54;100.00;96196.91;5030345;28;20238;-69
2021/11/14 08:07:07;;;;;;;1999.90;999.90;;;;;;;4.70;100.00;96190.16;5030496;28;20201;-68
2021/11/14 08:09:34;;;;;;;1999.90;999.90;;;;;;;4.89;100.00;96193.22;5030738;28;20202;-68
2021/11/14 08:12:01;;;;;;;1999.90;999.90;;;;;;;5.12;100.00;96185.25;5030669;28;20212;-68
2021/11/14 08:14:28;;;;;;;1999.90;999.90;;;;;;;5.25;98.24;96189.25;5030248;28;20229;-68
2021/11/14 08:16:55;;;;;;;1999.90;999.90;;;;;;;4.96;98.47;96186.88;5030638;28;20224;-68
2021/11/14 08:19:22;;;;;;;1999.90;999.90;;;;;;;5.05;98.34;96185.44;5030179;28;20566;-68
2021/11/14 08:21:49;;;;;;;1999.90;999.90;;;;;;;5.12;99.28;96187.84;5030262;28;20252;-68
2021/11/14 08:24:18;;;;;;;1999.90;999.90;;;;;;;5.29;99.24;96185.16;5030192;28;20690;-68
2021/11/14 08:26:45;;;;;;;1999.90;999.90;;;;;;;5.52;99.33;96183.09;5030113;28;20208;-68
2021/11/14 08:29:12;;;;;;;1999.90;999.90;;;;;;;5.58;99.59;96194.22;5030075;28;20203;-68
2021/11/14 08:31:39;;;;;;;1999.90;999.90;;;;;;;5.72;98.80;96187.66;5030001;28;20246;-68
2021/11/14 08:34:07;;;;;;;1999.90;999.90;;;;;;;5.66;97.51;96187.84;5030395;28;20280;-68
2021/11/14 08:36:34;;;;;;;1999.90;999.90;;;;;;;5.69;96.94;96185.56;5029973;28;20631;-68
2021/11/14 08:39:01;;;;;;;1999.90;999.90;;;;;;;5.67;95.87;96195.34;5030294;28;20425;-68
2021/11/14 08:41:30;;;;;;;1999.90;999.90;;;;;;;5.53;94.71;96194.94;5029974;28;20201;-68
2021/11/14 08:43:57;;;;;;;1999.90;999.90;;;;;;;5.56;94.92;96194.47;5030277;28;20276;-68
2021/11/14 08:46:24;;;;;;;1999.90;999.90;;;;;;;5.59;95.48;96188.81;5030274;28;20204;-68
2021/11/14 08:48:51;;;;;;;1999.90;999.90;;;;;;;5.77;94.99;96192.06;5029420;28;20739;-68
2021/11/14 08:51:18;;;;;;;1999.90;999.90;;;;;;;5.90;95.21;96187.31;5030261;28;20232;-68
2021/11/14 08:53:45;;;;;;;1999.90;999.90;;;;;;;5.98;94.03;96188.66;5029763;28;20680;-68
2021/11/14 08:56:13;;;;;;;1999.90;999.90;;;;;;;5.91;92.72;96193.25;5030107;28;20655;-68
2021/11/14 08:58:42;;;;;;;1999.90;999.90;;;;;;;5.89;92.79;96198.66;5030138;28;20197;-68
2021/11/14 09:01:12;;;;;;;1999.90;999.90;;;;;;;5.94;93.22;96187.59;5030069;28;20221;-68
2021/11/14 09:03:39;;;;;;;1999.90;999.90;;;;;;;6.09;94.00;96192.09;5030017;28;20251;-68
2021/11/14 09:06:06;;;;;;;1999.90;999.90;;;;;;;6.22;93.75;96191.69;5029569;28;20247;-68
2021/11/14 09:08:34;;;;;;;1999.90;999.90;;;;;;;6.09;94.48;96197.25;5031355;28;20198;-68
2021/11/14 09:11:01;;;;;;;1999.90;999.90;;;;;;;6.23;92.93;96188.81;5033543;28;20200;-68
2021/11/14 09:13:28;;;;;;;1999.90;999.90;;;;;;;6.24;91.94;96192.97;5033589;28;20201;-68
2021/11/14 09:15:58;;;;;;;1999.90;999.90;;;;;;;6.33;90.85;96177.78;5033784;28;20239;-68
2021/11/14 09:18:26;;;;;;;1999.90;999.90;;;;;;;6.32;90.52;96181.41;5033400;28;20198;-68
2021/11/14 09:20:54;;;;;;;1999.90;999.90;;;;;;;6.26;91.66;96172.88;5033230;28;20206;-68
2021/11/14 09:23:21;;;;;;;1999.90;999.90;;;;;;;6.35;92.59;96161.03;5033192;28;20204;-68
2021/11/14 09:25:49;;;;;;;1999.90;999.90;;;;;;;6.25;94.70;96167.94;5033173;28;20668;-68
2021/11/14 09:28:18;;;;;;;1999.90;999.90;;;;;;;6.44;93.29;96169.09;5033423;28;20260;-68
2021/11/14 09:30:48;;;;;;;1999.90;999.90;;;;;;;6.39;93.68;96171.63;5033048;28;20760;-68
2021/11/14 09:33:18;;;;;;;1999.90;999.90;;;;;;;6.00;94.16;96174.50;5033135;28;20216;-68
2021/11/14 09:35:46;;;;;;;1999.90;999.90;;;;;;;6.17;94.77;96171.78;5033085;28;20221;-68
2021/11/14 09:38:14;;;;;;;1999.90;999.90;;;;;;;6.05;95.66;96159.06;5033114;28;20579;-68
2021/11/14 09:40:42;;;;;;;1999.90;999.90;;;;;;;6.17;95.58;96163.25;5033226;28;20220;-68
2021/11/14 09:43:10;;;;;;;1999.90;999.90;;;;;;;6.16;93.96;96169.44;5033282;28;20201;-68
2021/11/14 09:45:38;;;;;;;1999.90;999.90;;;;;;;6.15;95.14;96170.47;5033171;28;20587;-68
2021/11/14 09:48:07;;;;;;;1999.90;999.90;;;;;;;6.16;95.34;96164.28;5032974;28;20216;-68
2021/11/14 09:50:37;;;;;;;1999.90;999.90;;;;;;;6.32;94.75;96153.81;5033182;28;20248;-68
2021/11/14 09:53:05;;;;;;;1999.90;999.90;;;;;;;6.26;94.35;96151.44;5032865;28;20251;-68
2021/11/14 09:55:35;;;;;;;1999.90;999.90;;;;;;;6.45;93.85;96150.00;5032836;28;20264;-68
2021/11/14 09:58:04;;;;;;;1999.90;999.90;;;;;;;6.72;93.54;96145.50;5033165;28;20194;-68
2021/11/14 10:00:31;;;;;;;1999.90;999.90;;;;;;;6.83;92.07;96139.31;5032764;28;20268;-68
2021/11/14 10:02:58;;;;;;;1999.90;999.90;;;;;;;6.83;90.42;96141.91;5032804;28;20197;-68
2021/11/14 10:05:25;;;;;;;1999.90;999.90;;;;;;;7.04;88.73;96141.97;5032499;28;20279;-68
2021/11/14 10:07:59;;;;;;;1999.90;999.90;;;;;;;7.15;89.41;96139.16;5032543;28;20201;-68
2021/11/14 10:10:29;;;;;;;1999.90;999.90;;;;;;;6.91;90.59;96128.50;5032629;28;20194;-69
2021/11/14 10:12:56;;;;;;;1999.90;999.90;;;;;;;6.68;91.21;96128.91;5032783;28;20198;-68
2021/11/14 10:15:25;;;;;;;1999.90;999.90;;;;;;;6.81;92.70;96128.47;5032749;28;20352;-68
2021/11/14 10:17:56;;;;;;;1999.90;999.90;;;;;;;7.11;91.71;96122.63;5032347;28;20210;-68
2021/11/14 10:20:26;;;;;;;1999.90;999.90;;;;;;;7.27;88.92;96120.84;5031695;28;20194;-68
2021/11/14 10:22:55;;;;;;;1999.90;999.90;;;;;;;7.39;89.00;96115.41;5032262;28;20755;-68
2021/11/14 10:25:25;;;;;;;1999.90;999.90;;;;;;;7.49;88.36;96113.59;5032313;28;20281;-69
2021/11/14 10:27:54;;;;;;;1999.90;999.90;;;;;;;7.55;86.28;96102.25;5032443;28;20214;-68
2021/11/14 10:30:24;;;;;;;1999.90;999.90;;;;;;;7.40;87.51;96104.81;5032480;28;20614;-68
2021/11/14 10:32:52;;;;;;;1999.90;999.90;;;;;;;7.30;87.57;96104.81;5032423;28;20221;-69
2021/11/14 10:35:19;;;;;;;1999.90;999.90;;;;;;;7.26;86.40;96101.19;5032352;28;20232;-68
2021/11/14 10:37:46;;;;;;;1999.90;999.90;;;;;;;7.24;89.32;96095.47;5032012;28;20240;-68
2021/11/14 10:40:18;;;;;;;1999.90;999.90;;;;;;;7.40;87.97;96093.69;5031799;28;20234;-68
2021/11/14 10:42:50;;;;;;;1999.90;999.90;;;;;;;7.61;87.04;96093.44;5030630;28;20716;-68
2021/11/14 10:45:18;;;;;;;1999.90;999.90;;;;;;;7.40;87.90;96091.09;5031912;28;20259;-69
2021/11/14 10:47:54;;;;;;;1999.90;999.90;;;;;;;7.41;89.64;96095.25;5031973;28;20194;-69
2021/11/14 10:50:24;;;;;;;1999.90;999.90;;;;;;;7.43;87.73;96088.78;5032242;28;20267;-68
2021/11/14 10:52:55;;;;;;;1999.90;999.90;;;;;;;7.70;87.67;96083.34;5032163;28;20217;-69
2021/11/14 10:55:23;;;;;;;1999.90;999.90;;;;;;;7.69;88.27;96074.81;5031998;28;20271;-68
2021/11/14 10:57:52;;;;;;;1999.90;999.90;;;;;;;7.79;86.69;96077.38;5031670;28;20236;-68
2021/11/14 11:00:21;;;;;;;1999.90;999.90;;;;;;;7.83;85.48;96075.06;5031710;28;20289;-68